Canton Center, Connecticut
Current Conditions -  °F | °C
As of 4:51 AM on Saturday 22 Nov 2014 (Local Time) from KBDL Reporting Station
Clear Clear  
Wind Chill: -6°   Ceiling: Unl
Heat Index: -6°   Visibility: 10mi
Dew Point: -12°   Wind: 0mph
Humidity: 65%   Direction: NA
Pressure: 30.43"   Gusts: NA
Location:  41.87°N, 72.91°W
Report Text: KBDL 220951Z 00000KT 10SM CLR M06/M12 A3043 RMK AO2 SLP306 T10611117
Loading
Personal Weather Stations






























Interactive Weather Map New forecast layout! Learn more

10-Day Weather Forecast

Advertisements
Track Severe Weather on mobile